sensor_id;sensor_type;location;lat;lon;timestamp;temperature;humidity
47168;DHT22;32931;47.778;17.806;2023-09-12T00:00:01;21.30;93.30
47168;DHT22;32931;47.778;17.806;2023-09-12T00:02:31;21.20;93.20
47168;DHT22;32931;47.778;17.806;2023-09-12T00:04:57;21.20;93.30
47168;DHT22;32931;47.778;17.806;2023-09-12T00:07:23;21.10;93.40
47168;DHT22;32931;47.778;17.806;2023-09-12T00:09:49;21.10;93.50
47168;DHT22;32931;47.778;17.806;2023-09-12T00:12:16;21.10;93.70
47168;DHT22;32931;47.778;17.806;2023-09-12T00:14:42;21.10;93.80
47168;DHT22;32931;47.778;17.806;2023-09-12T00:17:09;21.10;93.70
47168;DHT22;32931;47.778;17.806;2023-09-12T00:19:35;21.20;93.90
47168;DHT22;32931;47.778;17.806;2023-09-12T00:22:01;21.20;94.10
47168;DHT22;32931;47.778;17.806;2023-09-12T00:24:27;21.20;94.20
47168;DHT22;32931;47.778;17.806;2023-09-12T00:26:53;21.20;94.20
47168;DHT22;32931;47.778;17.806;2023-09-12T00:29:19;21.30;94.20
47168;DHT22;32931;47.778;17.806;2023-09-12T00:31:45;21.30;94.20
47168;DHT22;32931;47.778;17.806;2023-09-12T00:34:16;21.40;94.10
47168;DHT22;32931;47.778;17.806;2023-09-12T00:36:43;21.40;94.50
47168;DHT22;32931;47.778;17.806;2023-09-12T00:39:09;21.40;94.20
47168;DHT22;32931;47.778;17.806;2023-09-12T00:41:35;21.30;93.90
47168;DHT22;32931;47.778;17.806;2023-09-12T00:44:01;21.30;93.70
47168;DHT22;32931;47.778;17.806;2023-09-12T00:46:28;21.20;93.70
47168;DHT22;32931;47.778;17.806;2023-09-12T00:48:57;21.10;93.70
47168;DHT22;32931;47.778;17.806;2023-09-12T00:51:25;21.10;93.80
47168;DHT22;32931;47.778;17.806;2023-09-12T00:53:53;21.00;93.50
47168;DHT22;32931;47.778;17.806;2023-09-12T00:56:20;20.90;93.50
47168;DHT22;32931;47.778;17.806;2023-09-12T00:58:46;20.80;93.60
47168;DHT22;32931;47.778;17.806;2023-09-12T01:01:12;20.70;93.70
47168;DHT22;32931;47.778;17.806;2023-09-12T01:03:38;20.80;94.00
47168;DHT22;32931;47.778;17.806;2023-09-12T01:06:07;20.70;94.10
47168;DHT22;32931;47.778;17.806;2023-09-12T01:08:35;20.80;94.10
47168;DHT22;32931;47.778;17.806;2023-09-12T01:11:03;20.80;93.70
47168;DHT22;32931;47.778;17.806;2023-09-12T01:13:30;20.70;93.60
47168;DHT22;32931;47.778;17.806;2023-09-12T01:15:56;20.60;93.60
47168;DHT22;32931;47.778;17.806;2023-09-12T01:18:22;20.60;93.70
47168;DHT22;32931;47.778;17.806;2023-09-12T01:23:45;20.60;94.30
47168;DHT22;32931;47.778;17.806;2023-09-12T01:29:19;20.60;94.00
47168;DHT22;32931;47.778;17.806;2023-09-12T01:31:47;20.50;93.80
47168;DHT22;32931;47.778;17.806;2023-09-12T01:34:15;20.40;94.00
47168;DHT22;32931;47.778;17.806;2023-09-12T01:36:41;20.40;94.20
47168;DHT22;32931;47.778;17.806;2023-09-12T01:39:07;20.40;94.40
47168;DHT22;32931;47.778;17.806;2023-09-12T01:41:36;20.50;94.30
47168;DHT22;32931;47.778;17.806;2023-09-12T01:44:06;20.50;94.30
47168;DHT22;32931;47.778;17.806;2023-09-12T01:46:34;20.50;94.10
47168;DHT22;32931;47.778;17.806;2023-09-12T01:49:02;20.40;94.10
47168;DHT22;32931;47.778;17.806;2023-09-12T01:51:30;20.40;94.10
47168;DHT22;32931;47.778;17.806;2023-09-12T01:53:56;20.40;94.40
47168;DHT22;32931;47.778;17.806;2023-09-12T01:56:24;20.40;94.60
47168;DHT22;32931;47.778;17.806;2023-09-12T01:58:51;20.40;94.70
47168;DHT22;32931;47.778;17.806;2023-09-12T02:01:17;20.40;94.80
47168;DHT22;32931;47.778;17.806;2023-09-12T02:03:43;20.50;95.00
47168;DHT22;32931;47.778;17.806;2023-09-12T02:06:09;20.50;95.10
47168;DHT22;32931;47.778;17.806;2023-09-12T02:08:36;20.60;95.10
47168;DHT22;32931;47.778;17.806;2023-09-12T02:11:02;20.60;95.00
47168;DHT22;32931;47.778;17.806;2023-09-12T02:13:28;20.60;95.00
47168;DHT22;32931;47.778;17.806;2023-09-12T02:16:01;20.60;94.90
47168;DHT22;32931;47.778;17.806;2023-09-12T02:18:29;20.60;95.00
47168;DHT22;32931;47.778;17.806;2023-09-12T02:20:55;20.60;95.00
47168;DHT22;32931;47.778;17.806;2023-09-12T02:23:21;20.60;95.10
47168;DHT22;32931;47.778;17.806;2023-09-12T02:25:48;20.60;95.20
47168;DHT22;32931;47.778;17.806;2023-09-12T02:28:15;20.60;95.20
47168;DHT22;32931;47.778;17.806;2023-09-12T02:30:41;20.70;95.30
47168;DHT22;32931;47.778;17.806;2023-09-12T02:33:07;20.60;95.20
47168;DHT22;32931;47.778;17.806;2023-09-12T02:35:33;20.70;95.20
47168;DHT22;32931;47.778;17.806;2023-09-12T02:37:59;20.70;95.20
47168;DHT22;32931;47.778;17.806;2023-09-12T02:40:25;20.70;95.10
47168;DHT22;32931;47.778;17.806;2023-09-12T02:42:52;20.70;95.10
47168;DHT22;32931;47.778;17.806;2023-09-12T02:45:18;20.70;95.00
47168;DHT22;32931;47.778;17.806;2023-09-12T02:47:44;20.70;95.00
47168;DHT22;32931;47.778;17.806;2023-09-12T02:50:12;20.70;95.00
47168;DHT22;32931;47.778;17.806;2023-09-12T02:52:38;20.70;95.00
47168;DHT22;32931;47.778;17.806;2023-09-12T02:55:04;20.70;95.00
47168;DHT22;32931;47.778;17.806;2023-09-12T02:57:31;20.70;94.90
47168;DHT22;32931;47.778;17.806;2023-09-12T02:59:57;20.60;94.60
47168;DHT22;32931;47.778;17.806;2023-09-12T03:02:23;20.50;94.30
47168;DHT22;32931;47.778;17.806;2023-09-12T03:04:49;20.30;94.30
47168;DHT22;32931;47.778;17.806;2023-09-12T03:07:15;20.30;94.70
47168;DHT22;32931;47.778;17.806;2023-09-12T03:09:42;20.20;94.90
47168;DHT22;32931;47.778;17.806;2023-09-12T03:12:08;20.20;95.00
47168;DHT22;32931;47.778;17.806;2023-09-12T03:14:34;20.20;95.10
47168;DHT22;32931;47.778;17.806;2023-09-12T03:17:00;20.20;95.00
47168;DHT22;32931;47.778;17.806;2023-09-12T03:19:26;20.20;94.60
47168;DHT22;32931;47.778;17.806;2023-09-12T03:21:52;20.20;94.50
47168;DHT22;32931;47.778;17.806;2023-09-12T03:24:18;20.10;94.50
47168;DHT22;32931;47.778;17.806;2023-09-12T03:26:47;20.00;94.40
47168;DHT22;32931;47.778;17.806;2023-09-12T03:29:13;19.90;94.40
47168;DHT22;32931;47.778;17.806;2023-09-12T03:31:39;19.90;94.60
47168;DHT22;32931;47.778;17.806;2023-09-12T03:34:05;19.80;94.70
47168;DHT22;32931;47.778;17.806;2023-09-12T03:36:31;19.80;94.80
47168;DHT22;32931;47.778;17.806;2023-09-12T03:38:57;19.80;95.00
47168;DHT22;32931;47.778;17.806;2023-09-12T03:41:23;19.90;95.10
47168;DHT22;32931;47.778;17.806;2023-09-12T03:43:54;19.80;95.10
47168;DHT22;32931;47.778;17.806;2023-09-12T03:46:21;19.90;95.20
47168;DHT22;32931;47.778;17.806;2023-09-12T03:48:48;19.90;95.00
47168;DHT22;32931;47.778;17.806;2023-09-12T03:51:14;19.80;94.80
47168;DHT22;32931;47.778;17.806;2023-09-12T03:53:40;19.80;94.90
47168;DHT22;32931;47.778;17.806;2023-09-12T03:56:07;19.80;95.20
47168;DHT22;32931;47.778;17.806;2023-09-12T03:58:35;19.80;95.30
47168;DHT22;32931;47.778;17.806;2023-09-12T04:01:02;19.80;95.40
47168;DHT22;32931;47.778;17.806;2023-09-12T04:03:28;19.80;95.50
47168;DHT22;32931;47.778;17.806;2023-09-12T04:05:54;19.90;95.50
47168;DHT22;32931;47.778;17.806;2023-09-12T04:08:20;19.90;95.50
47168;DHT22;32931;47.778;17.806;2023-09-12T04:10:46;19.90;95.60
47168;DHT22;32931;47.778;17.806;2023-09-12T04:13:12;19.90;95.70
47168;DHT22;32931;47.778;17.806;2023-09-12T04:15:38;20.00;96.10
47168;DHT22;32931;47.778;17.806;2023-09-12T04:18:05;20.00;95.90
47168;DHT22;32931;47.778;17.806;2023-09-12T04:20:31;20.00;95.70
47168;DHT22;32931;47.778;17.806;2023-09-12T04:22:57;20.00;95.50
47168;DHT22;32931;47.778;17.806;2023-09-12T04:25:23;20.00;95.50
47168;DHT22;32931;47.778;17.806;2023-09-12T04:27:49;20.00;95.60
47168;DHT22;32931;47.778;17.806;2023-09-12T04:30:15;20.00;95.80
47168;DHT22;32931;47.778;17.806;2023-09-12T04:32:41;20.00;95.70
47168;DHT22;32931;47.778;17.806;2023-09-12T04:35:08;19.90;95.30
47168;DHT22;32931;47.778;17.806;2023-09-12T04:37:34;19.90;95.10
47168;DHT22;32931;47.778;17.806;2023-09-12T04:40:01;19.80;95.20
47168;DHT22;32931;47.778;17.806;2023-09-12T04:42:27;19.80;95.20
47168;DHT22;32931;47.778;17.806;2023-09-12T04:44:53;19.80;94.90
47168;DHT22;32931;47.778;17.806;2023-09-12T04:47:20;19.70;94.90
47168;DHT22;32931;47.778;17.806;2023-09-12T04:49:47;19.70;94.90
47168;DHT22;32931;47.778;17.806;2023-09-12T04:52:13;19.60;95.00
47168;DHT22;32931;47.778;17.806;2023-09-12T04:54:39;19.60;94.80
47168;DHT22;32931;47.778;17.806;2023-09-12T04:57:05;19.50;94.80
47168;DHT22;32931;47.778;17.806;2023-09-12T04:59:32;19.40;94.70
47168;DHT22;32931;47.778;17.806;2023-09-12T05:01:58;19.40;94.60
47168;DHT22;32931;47.778;17.806;2023-09-12T05:04:24;19.30;94.70
47168;DHT22;32931;47.778;17.806;2023-09-12T05:06:50;19.20;94.80
47168;DHT22;32931;47.778;17.806;2023-09-12T05:09:16;19.10;94.90
47168;DHT22;32931;47.778;17.806;2023-09-12T05:11:42;19.10;95.20
47168;DHT22;32931;47.778;17.806;2023-09-12T05:14:10;19.10;95.30
47168;DHT22;32931;47.778;17.806;2023-09-12T05:16:36;19.10;95.30
47168;DHT22;32931;47.778;17.806;2023-09-12T05:19:02;19.00;95.50
47168;DHT22;32931;47.778;17.806;2023-09-12T05:21:29;19.10;95.90
47168;DHT22;32931;47.778;17.806;2023-09-12T05:23:55;19.10;96.30
47168;DHT22;32931;47.778;17.806;2023-09-12T05:26:21;19.20;96.50
47168;DHT22;32931;47.778;17.806;2023-09-12T05:28:47;19.30;96.60
47168;DHT22;32931;47.778;17.806;2023-09-12T05:31:14;19.40;96.60
47168;DHT22;32931;47.778;17.806;2023-09-12T05:33:40;19.50;96.70
47168;DHT22;32931;47.778;17.806;2023-09-12T05:36:06;19.50;96.50
47168;DHT22;32931;47.778;17.806;2023-09-12T05:38:32;19.50;96.70
47168;DHT22;32931;47.778;17.806;2023-09-12T05:40:58;19.50;96.80
47168;DHT22;32931;47.778;17.806;2023-09-12T05:43:24;19.60;96.90
47168;DHT22;32931;47.778;17.806;2023-09-12T05:45:51;19.60;97.00
47168;DHT22;32931;47.778;17.806;2023-09-12T05:48:17;19.70;97.10
47168;DHT22;32931;47.778;17.806;2023-09-12T05:50:43;19.80;97.20
47168;DHT22;32931;47.778;17.806;2023-09-12T05:53:10;19.80;97.30
47168;DHT22;32931;47.778;17.806;2023-09-12T05:55:36;19.80;97.50
47168;DHT22;32931;47.778;17.806;2023-09-12T05:58:02;19.90;97.60
47168;DHT22;32931;47.778;17.806;2023-09-12T06:00:32;19.90;97.60
47168;DHT22;32931;47.778;17.806;2023-09-12T06:02:58;20.00;97.70
47168;DHT22;32931;47.778;17.806;2023-09-12T06:05:24;20.00;97.80
47168;DHT22;32931;47.778;17.806;2023-09-12T06:07:51;20.10;97.90
47168;DHT22;32931;47.778;17.806;2023-09-12T06:10:17;20.10;97.90
47168;DHT22;32931;47.778;17.806;2023-09-12T06:12:43;20.20;98.00
47168;DHT22;32931;47.778;17.806;2023-09-12T06:15:09;20.30;98.20
47168;DHT22;32931;47.778;17.806;2023-09-12T06:17:36;20.40;98.30
47168;DHT22;32931;47.778;17.806;2023-09-12T06:20:02;20.40;98.10
47168;DHT22;32931;47.778;17.806;2023-09-12T06:22:32;20.50;98.00
47168;DHT22;32931;47.778;17.806;2023-09-12T06:24:58;20.60;98.00
47168;DHT22;32931;47.778;17.806;2023-09-12T06:27:24;20.70;97.90
47168;DHT22;32931;47.778;17.806;2023-09-12T06:29:50;20.80;97.80
47168;DHT22;32931;47.778;17.806;2023-09-12T06:32:19;20.80;97.70
47168;DHT22;32931;47.778;17.806;2023-09-12T06:34:45;21.00;97.80
47168;DHT22;32931;47.778;17.806;2023-09-12T06:37:13;21.00;97.80
47168;DHT22;32931;47.778;17.806;2023-09-12T06:39:39;21.10;97.70
47168;DHT22;32931;47.778;17.806;2023-09-12T06:42:06;21.20;97.70
47168;DHT22;32931;47.778;17.806;2023-09-12T06:44:32;21.40;97.70
47168;DHT22;32931;47.778;17.806;2023-09-12T06:46:58;21.40;97.50
47168;DHT22;32931;47.778;17.806;2023-09-12T06:49:24;21.50;97.30
47168;DHT22;32931;47.778;17.806;2023-09-12T06:51:50;21.60;97.40
47168;DHT22;32931;47.778;17.806;2023-09-12T06:54:16;21.70;97.30
47168;DHT22;32931;47.778;17.806;2023-09-12T06:56:42;21.80;97.20
47168;DHT22;32931;47.778;17.806;2023-09-12T06:59:09;21.90;97.20
47168;DHT22;32931;47.778;17.806;2023-09-12T07:01:35;21.90;96.90
47168;DHT22;32931;47.778;17.806;2023-09-12T07:04:01;22.00;96.80
47168;DHT22;32931;47.778;17.806;2023-09-12T07:06:28;22.10;96.60
47168;DHT22;32931;47.778;17.806;2023-09-12T07:08:55;22.20;96.20
47168;DHT22;32931;47.778;17.806;2023-09-12T07:11:22;22.20;96.20
47168;DHT22;32931;47.778;17.806;2023-09-12T07:13:50;22.30;96.10
47168;DHT22;32931;47.778;17.806;2023-09-12T07:16:16;22.40;96.10
47168;DHT22;32931;47.778;17.806;2023-09-12T07:18:42;22.40;95.90
47168;DHT22;32931;47.778;17.806;2023-09-12T07:21:08;22.50;95.80
47168;DHT22;32931;47.778;17.806;2023-09-12T07:23:37;22.60;95.40
47168;DHT22;32931;47.778;17.806;2023-09-12T07:26:03;22.70;95.10
47168;DHT22;32931;47.778;17.806;2023-09-12T07:28:30;22.70;94.90
47168;DHT22;32931;47.778;17.806;2023-09-12T07:30:56;22.80;94.80
47168;DHT22;32931;47.778;17.806;2023-09-12T07:33:23;22.90;94.70
47168;DHT22;32931;47.778;17.806;2023-09-12T07:35:52;23.00;94.70
47168;DHT22;32931;47.778;17.806;2023-09-12T07:38:18;23.00;94.70
47168;DHT22;32931;47.778;17.806;2023-09-12T07:40:45;23.10;95.00
47168;DHT22;32931;47.778;17.806;2023-09-12T07:43:12;23.10;95.10
47168;DHT22;32931;47.778;17.806;2023-09-12T07:45:38;23.20;95.20
47168;DHT22;32931;47.778;17.806;2023-09-12T07:48:08;23.30;95.10
47168;DHT22;32931;47.778;17.806;2023-09-12T07:50:35;23.40;95.20
47168;DHT22;32931;47.778;17.806;2023-09-12T07:53:07;23.40;94.80
47168;DHT22;32931;47.778;17.806;2023-09-12T07:55:37;23.60;94.50
47168;DHT22;32931;47.778;17.806;2023-09-12T07:58:15;23.60;94.40
47168;DHT22;32931;47.778;17.806;2023-09-12T08:00:41;23.70;94.40
47168;DHT22;32931;47.778;17.806;2023-09-12T08:03:08;23.80;94.30
47168;DHT22;32931;47.778;17.806;2023-09-12T08:05:34;23.90;94.10
47168;DHT22;32931;47.778;17.806;2023-09-12T08:08:00;24.00;94.00
47168;DHT22;32931;47.778;17.806;2023-09-12T08:10:26;24.00;93.60
47168;DHT22;32931;47.778;17.806;2023-09-12T08:12:53;24.10;93.50
47168;DHT22;32931;47.778;17.806;2023-09-12T08:15:19;24.20;93.30
47168;DHT22;32931;47.778;17.806;2023-09-12T08:17:45;24.20;93.30
47168;DHT22;32931;47.778;17.806;2023-09-12T08:20:18;24.30;93.00
47168;DHT22;32931;47.778;17.806;2023-09-12T08:22:44;24.40;93.00
47168;DHT22;32931;47.778;17.806;2023-09-12T08:25:10;24.40;92.80
47168;DHT22;32931;47.778;17.806;2023-09-12T08:27:38;24.50;92.50
47168;DHT22;32931;47.778;17.806;2023-09-12T08:30:05;24.60;92.50
47168;DHT22;32931;47.778;17.806;2023-09-12T08:32:31;24.70;92.40
47168;DHT22;32931;47.778;17.806;2023-09-12T08:34:57;24.70;91.80
47168;DHT22;32931;47.778;17.806;2023-09-12T08:37:24;24.70;91.70
47168;DHT22;32931;47.778;17.806;2023-09-12T08:39:51;24.80;91.50
47168;DHT22;32931;47.778;17.806;2023-09-12T08:42:22;24.90;91.80
47168;DHT22;32931;47.778;17.806;2023-09-12T08:44:49;25.00;91.60
47168;DHT22;32931;47.778;17.806;2023-09-12T08:47:15;25.00;91.30
47168;DHT22;32931;47.778;17.806;2023-09-12T08:49:45;25.10;90.90
47168;DHT22;32931;47.778;17.806;2023-09-12T08:52:11;25.20;90.60
47168;DHT22;32931;47.778;17.806;2023-09-12T08:54:37;25.30;90.70
47168;DHT22;32931;47.778;17.806;2023-09-12T08:57:05;25.30;90.40
47168;DHT22;32931;47.778;17.806;2023-09-12T08:59:34;25.40;90.30
47168;DHT22;32931;47.778;17.806;2023-09-12T09:02:05;25.40;90.20
47168;DHT22;32931;47.778;17.806;2023-09-12T09:04:33;25.50;90.10
47168;DHT22;32931;47.778;17.806;2023-09-12T09:07:00;25.50;90.40
47168;DHT22;32931;47.778;17.806;2023-09-12T09:09:27;25.60;90.20
47168;DHT22;32931;47.778;17.806;2023-09-12T09:11:54;25.70;90.10
47168;DHT22;32931;47.778;17.806;2023-09-12T09:14:21;25.80;90.10
47168;DHT22;32931;47.778;17.806;2023-09-12T09:16:47;25.90;90.40
47168;DHT22;32931;47.778;17.806;2023-09-12T09:19:14;25.90;90.20
47168;DHT22;32931;47.778;17.806;2023-09-12T09:21:42;26.00;90.00
47168;DHT22;32931;47.778;17.806;2023-09-12T09:24:10;26.00;90.00
47168;DHT22;32931;47.778;17.806;2023-09-12T09:26:49;26.20;90.00
47168;DHT22;32931;47.778;17.806;2023-09-12T09:29:21;26.30;89.80
47168;DHT22;32931;47.778;17.806;2023-09-12T09:31:49;26.30;89.40
47168;DHT22;32931;47.778;17.806;2023-09-12T09:34:17;26.40;90.30
47168;DHT22;32931;47.778;17.806;2023-09-12T09:36:46;26.50;90.00
47168;DHT22;32931;47.778;17.806;2023-09-12T09:39:13;26.60;89.90
47168;DHT22;32931;47.778;17.806;2023-09-12T09:41:40;26.70;87.60
47168;DHT22;32931;47.778;17.806;2023-09-12T09:44:09;26.70;87.20
47168;DHT22;32931;47.778;17.806;2023-09-12T09:46:38;26.80;87.30
47168;DHT22;32931;47.778;17.806;2023-09-12T09:49:04;26.80;86.70
47168;DHT22;32931;47.778;17.806;2023-09-12T09:51:33;26.90;87.00
47168;DHT22;32931;47.778;17.806;2023-09-12T09:54:08;27.00;86.60
47168;DHT22;32931;47.778;17.806;2023-09-12T09:57:06;27.00;87.00
47168;DHT22;32931;47.778;17.806;2023-09-12T09:59:31;27.10;86.10
47168;DHT22;32931;47.778;17.806;2023-09-12T10:01:58;27.20;87.00
47168;DHT22;32931;47.778;17.806;2023-09-12T10:04:28;27.30;86.90
47168;DHT22;32931;47.778;17.806;2023-09-12T10:06:58;27.40;87.60
47168;DHT22;32931;47.778;17.806;2023-09-12T10:09:28;27.50;86.80
47168;DHT22;32931;47.778;17.806;2023-09-12T10:11:57;27.60;86.00
47168;DHT22;32931;47.778;17.806;2023-09-12T10:14:27;27.70;86.50
47168;DHT22;32931;47.778;17.806;2023-09-12T10:16:57;27.70;85.10
47168;DHT22;32931;47.778;17.806;2023-09-12T10:19:26;27.80;86.30
47168;DHT22;32931;47.778;17.806;2023-09-12T10:24:30;28.00;86.20
47168;DHT22;32931;47.778;17.806;2023-09-12T10:26:58;28.00;86.20
47168;DHT22;32931;47.778;17.806;2023-09-12T10:29:26;28.10;86.10
47168;DHT22;32931;47.778;17.806;2023-09-12T10:31:52;28.20;85.70
47168;DHT22;32931;47.778;17.806;2023-09-12T10:34:18;28.30;85.40
47168;DHT22;32931;47.778;17.806;2023-09-12T10:36:46;28.30;85.40
47168;DHT22;32931;47.778;17.806;2023-09-12T10:39:14;28.40;84.80
47168;DHT22;32931;47.778;17.806;2023-09-12T10:41:41;28.40;84.80
47168;DHT22;32931;47.778;17.806;2023-09-12T10:44:11;28.50;84.80
47168;DHT22;32931;47.778;17.806;2023-09-12T10:46:41;28.50;84.60
47168;DHT22;32931;47.778;17.806;2023-09-12T10:49:13;28.60;85.00
47168;DHT22;32931;47.778;17.806;2023-09-12T10:51:44;28.60;85.30
47168;DHT22;32931;47.778;17.806;2023-09-12T10:54:24;28.70;84.90
47168;DHT22;32931;47.778;17.806;2023-09-12T10:57:07;28.70;84.50
47168;DHT22;32931;47.778;17.806;2023-09-12T10:59:34;28.80;83.40
47168;DHT22;32931;47.778;17.806;2023-09-12T11:02:28;28.80;83.20
47168;DHT22;32931;47.778;17.806;2023-09-12T11:04:59;28.90;82.00
47168;DHT22;32931;47.778;17.806;2023-09-12T11:12:41;29.00;82.80
47168;DHT22;32931;47.778;17.806;2023-09-12T11:15:08;29.10;82.40
47168;DHT22;32931;47.778;17.806;2023-09-12T11:17:43;29.10;83.20
47168;DHT22;32931;47.778;17.806;2023-09-12T11:20:10;29.20;82.80
47168;DHT22;32931;47.778;17.806;2023-09-12T11:22:38;29.20;83.00
47168;DHT22;32931;47.778;17.806;2023-09-12T11:25:24;29.20;83.00
47168;DHT22;32931;47.778;17.806;2023-09-12T11:30:24;29.30;81.80
47168;DHT22;32931;47.778;17.806;2023-09-12T11:32:52;29.30;82.10
47168;DHT22;32931;47.778;17.806;2023-09-12T11:35:29;29.30;81.90
47168;DHT22;32931;47.778;17.806;2023-09-12T11:37:57;29.30;80.40
47168;DHT22;32931;47.778;17.806;2023-09-12T11:43:00;29.30;82.40
47168;DHT22;32931;47.778;17.806;2023-09-12T11:45:27;29.20;81.60
47168;DHT22;32931;47.778;17.806;2023-09-12T11:47:54;29.20;79.60
47168;DHT22;32931;47.778;17.806;2023-09-12T11:50:30;29.20;81.60
47168;DHT22;32931;47.778;17.806;2023-09-12T11:53:04;29.20;81.20
47168;DHT22;32931;47.778;17.806;2023-09-12T11:55:36;29.20;81.00
47168;DHT22;32931;47.778;17.806;2023-09-12T11:58:03;29.10;79.70
47168;DHT22;32931;47.778;17.806;2023-09-12T12:00:30;29.10;79.00
47168;DHT22;32931;47.778;17.806;2023-09-12T12:02:56;29.20;80.30
47168;DHT22;32931;47.778;17.806;2023-09-12T12:05:23;29.10;78.80
47168;DHT22;32931;47.778;17.806;2023-09-12T12:07:49;29.10;79.40
47168;DHT22;32931;47.778;17.806;2023-09-12T12:10:17;29.10;80.30
47168;DHT22;32931;47.778;17.806;2023-09-12T12:12:46;29.10;79.40
47168;DHT22;32931;47.778;17.806;2023-09-12T12:15:13;29.10;78.80
47168;DHT22;32931;47.778;17.806;2023-09-12T12:17:42;29.10;78.60
47168;DHT22;32931;47.778;17.806;2023-09-12T12:20:10;29.10;76.90
47168;DHT22;32931;47.778;17.806;2023-09-12T12:22:37;29.10;78.40
47168;DHT22;32931;47.778;17.806;2023-09-12T12:25:11;29.10;79.00
47168;DHT22;32931;47.778;17.806;2023-09-12T12:27:38;29.10;79.00
47168;DHT22;32931;47.778;17.806;2023-09-12T12:30:12;29.10;78.40
47168;DHT22;32931;47.778;17.806;2023-09-12T12:32:42;29.20;78.90
47168;DHT22;32931;47.778;17.806;2023-09-12T12:35:09;29.10;79.40
47168;DHT22;32931;47.778;17.806;2023-09-12T12:37:43;29.20;77.20
47168;DHT22;32931;47.778;17.806;2023-09-12T12:40:13;29.20;77.40
47168;DHT22;32931;47.778;17.806;2023-09-12T12:42:40;29.20;78.50
47168;DHT22;32931;47.778;17.806;2023-09-12T12:45:18;29.10;78.20
47168;DHT22;32931;47.778;17.806;2023-09-12T12:47:45;29.10;79.30
47168;DHT22;32931;47.778;17.806;2023-09-12T12:50:16;29.10;78.50
47168;DHT22;32931;47.778;17.806;2023-09-12T12:52:47;29.20;78.70
47168;DHT22;32931;47.778;17.806;2023-09-12T12:55:14;29.20;76.60
47168;DHT22;32931;47.778;17.806;2023-09-12T12:57:41;29.20;77.50
47168;DHT22;32931;47.778;17.806;2023-09-12T13:00:15;29.20;77.70
47168;DHT22;32931;47.778;17.806;2023-09-12T13:02:42;29.30;75.70
47168;DHT22;32931;47.778;17.806;2023-09-12T13:05:41;29.30;75.00
47168;DHT22;32931;47.778;17.806;2023-09-12T13:08:07;29.40;79.60
47168;DHT22;32931;47.778;17.806;2023-09-12T13:10:34;29.30;76.70
47168;DHT22;32931;47.778;17.806;2023-09-12T13:13:00;29.30;76.40
47168;DHT22;32931;47.778;17.806;2023-09-12T13:15:26;29.30;76.20
47168;DHT22;32931;47.778;17.806;2023-09-12T13:17:52;29.30;76.20
47168;DHT22;32931;47.778;17.806;2023-09-12T13:20:19;29.30;76.00
47168;DHT22;32931;47.778;17.806;2023-09-12T13:22:45;29.30;76.10
47168;DHT22;32931;47.778;17.806;2023-09-12T13:25:11;29.30;77.00
47168;DHT22;32931;47.778;17.806;2023-09-12T13:27:37;29.30;77.10
47168;DHT22;32931;47.778;17.806;2023-09-12T13:30:04;29.30;76.30
47168;DHT22;32931;47.778;17.806;2023-09-12T13:32:31;29.30;76.20
47168;DHT22;32931;47.778;17.806;2023-09-12T13:34:59;29.40;76.10
47168;DHT22;32931;47.778;17.806;2023-09-12T13:37:25;29.40;76.20
47168;DHT22;32931;47.778;17.806;2023-09-12T13:39:54;29.50;76.10
47168;DHT22;32931;47.778;17.806;2023-09-12T13:42:20;29.60;75.40
47168;DHT22;32931;47.778;17.806;2023-09-12T13:44:47;29.60;75.50
47168;DHT22;32931;47.778;17.806;2023-09-12T13:47:13;29.60;76.00
47168;DHT22;32931;47.778;17.806;2023-09-12T13:49:47;29.60;74.20
47168;DHT22;32931;47.778;17.806;2023-09-12T13:52:13;29.60;73.30
47168;DHT22;32931;47.778;17.806;2023-09-12T13:54:40;29.70;72.50
47168;DHT22;32931;47.778;17.806;2023-09-12T13:57:06;29.70;72.30
47168;DHT22;32931;47.778;17.806;2023-09-12T13:59:33;29.70;72.80
47168;DHT22;32931;47.778;17.806;2023-09-12T14:01:59;29.70;73.80
47168;DHT22;32931;47.778;17.806;2023-09-12T14:04:25;29.70;74.40
47168;DHT22;32931;47.778;17.806;2023-09-12T14:06:51;29.70;74.70
47168;DHT22;32931;47.778;17.806;2023-09-12T14:09:17;29.80;75.50
47168;DHT22;32931;47.778;17.806;2023-09-12T14:11:43;29.80;74.10
47168;DHT22;32931;47.778;17.806;2023-09-12T14:14:09;29.80;73.80
47168;DHT22;32931;47.778;17.806;2023-09-12T14:16:36;29.80;74.40
47168;DHT22;32931;47.778;17.806;2023-09-12T14:19:02;29.80;73.50
47168;DHT22;32931;47.778;17.806;2023-09-12T14:21:28;29.80;73.80
47168;DHT22;32931;47.778;17.806;2023-09-12T14:23:54;29.80;73.20
47168;DHT22;32931;47.778;17.806;2023-09-12T14:26:20;29.80;73.40
47168;DHT22;32931;47.778;17.806;2023-09-12T14:28:46;29.80;73.30
47168;DHT22;32931;47.778;17.806;2023-09-12T14:31:13;29.90;73.10
47168;DHT22;32931;47.778;17.806;2023-09-12T14:33:40;30.00;73.30
47168;DHT22;32931;47.778;17.806;2023-09-12T14:36:08;30.10;73.50
47168;DHT22;32931;47.778;17.806;2023-09-12T14:38:35;30.30;74.40
47168;DHT22;32931;47.778;17.806;2023-09-12T14:41:01;30.40;73.70
47168;DHT22;32931;47.778;17.806;2023-09-12T14:43:28;30.50;74.10
47168;DHT22;32931;47.778;17.806;2023-09-12T14:45:55;30.70;73.60
47168;DHT22;32931;47.778;17.806;2023-09-12T14:48:21;30.80;73.30
47168;DHT22;32931;47.778;17.806;2023-09-12T14:50:48;30.90;72.30
47168;DHT22;32931;47.778;17.806;2023-09-12T14:53:16;31.00;72.00
47168;DHT22;32931;47.778;17.806;2023-09-12T14:55:43;31.10;72.30
47168;DHT22;32931;47.778;17.806;2023-09-12T14:58:09;31.20;71.70
47168;DHT22;32931;47.778;17.806;2023-09-12T15:00:36;31.20;72.30
47168;DHT22;32931;47.778;17.806;2023-09-12T15:03:04;31.30;71.50
47168;DHT22;32931;47.778;17.806;2023-09-12T15:05:30;31.40;71.60
47168;DHT22;32931;47.778;17.806;2023-09-12T15:07:56;31.40;72.30
47168;DHT22;32931;47.778;17.806;2023-09-12T15:10:23;31.40;72.00
47168;DHT22;32931;47.778;17.806;2023-09-12T15:12:49;31.50;70.50
47168;DHT22;32931;47.778;17.806;2023-09-12T15:15:15;31.40;70.50
47168;DHT22;32931;47.778;17.806;2023-09-12T15:17:41;31.40;70.80
47168;DHT22;32931;47.778;17.806;2023-09-12T15:20:08;31.50;69.90
47168;DHT22;32931;47.778;17.806;2023-09-12T15:22:34;31.50;71.00
47168;DHT22;32931;47.778;17.806;2023-09-12T15:25:02;31.50;70.60
47168;DHT22;32931;47.778;17.806;2023-09-12T15:27:28;31.60;70.40
47168;DHT22;32931;47.778;17.806;2023-09-12T15:29:59;31.50;70.50
47168;DHT22;32931;47.778;17.806;2023-09-12T15:32:25;31.50;70.60
47168;DHT22;32931;47.778;17.806;2023-09-12T15:34:51;31.50;70.90